createdAt,value
2018-04-09T00:14:30.225Z,50.4
2018-04-09T00:31:13.230Z,51.2
2018-04-09T00:47:56.215Z,52.0
2018-04-09T01:04:38.694Z,52.8
2018-04-09T01:21:20.833Z,53.2
2018-04-09T01:38:03.375Z,54.0
2018-04-09T01:54:45.047Z,54.8
2018-04-09T02:11:26.369Z,55.6
2018-04-09T02:28:08.019Z,56.4
2018-04-09T02:44:49.280Z,57.2
2018-04-09T03:01:30.076Z,57.2
2018-04-09T03:18:11.093Z,58.8
2018-04-09T03:34:51.918Z,58.8
2018-04-09T03:51:32.203Z,59.2
2018-04-09T04:08:13.717Z,60.0
2018-04-09T04:24:53.566Z,60.8
2018-04-09T04:41:33.315Z,61.2
2018-04-09T04:58:13.662Z,62.0
2018-04-09T05:14:53.704Z,62.4
2018-04-09T05:31:33.732Z,63.2
2018-04-09T05:48:14.577Z,64.0
2018-04-09T06:04:53.657Z,64.4
2018-04-09T06:21:35.567Z,64.8
2018-04-09T06:28:15.602Z,64.8
2018-04-09T06:38:16.920Z,64.4
2018-04-09T06:54:58.926Z,64.0
2018-04-09T07:01:39.627Z,64.0
2018-04-09T07:18:22.444Z,63.2
2018-04-09T07:35:05.386Z,62.0
2018-04-09T07:51:48.619Z,62.8
2018-04-09T08:08:32.436Z,62.8
2018-04-09T08:21:55.828Z,62.4
2018-04-09T08:38:39.032Z,61.6
2018-04-09T08:45:22.376Z,61.6
2018-04-09T09:02:06.260Z,60.4
2018-04-09T09:18:51.440Z,60.0
2018-04-09T09:35:36.301Z,59.6
2018-04-09T09:52:22.195Z,59.6
2018-04-09T10:09:07.275Z,58.8
2018-04-09T10:19:11.660Z,58.4
2018-04-09T10:35:56.222Z,57.2
2018-04-09T10:52:43.213Z,56.4
2018-04-09T11:06:08.232Z,56.0
2018-04-09T11:22:55.010Z,55.6
2018-04-09T11:39:40.828Z,55.2
2018-04-09T11:56:29.229Z,55.2
2018-04-09T12:13:15.389Z,54.0
2018-04-09T12:30:02.167Z,54.4
2018-04-09T12:40:07.012Z,54.0
2018-04-09T12:53:32.349Z,52.8
2018-04-09T13:06:58.987Z,52.8
2018-04-09T13:23:46.186Z,53.2
2018-04-09T13:40:32.555Z,53.2
2018-04-09T13:57:20.319Z,52.4
2018-04-09T14:14:11.283Z,51.6
2018-04-09T14:30:56.074Z,51.6
2018-04-09T14:47:43.391Z,52.0
2018-04-09T15:04:30.798Z,53.2
2018-04-09T15:21:17.670Z,54.0
2018-04-09T15:38:04.466Z,54.8
2018-04-09T15:54:50.741Z,56.0
2018-04-09T16:11:37.616Z,56.0
2018-04-09T16:28:25.029Z,56.0
2018-04-09T16:45:11.155Z,56.4
2018-04-09T17:01:57.921Z,56.8
2018-04-09T17:18:44.543Z,57.6
2018-04-09T17:35:30.807Z,58.4
2018-04-09T17:52:17.278Z,58.4
2018-04-09T18:09:03.451Z,58.8
2018-04-09T18:25:49.983Z,59.6
2018-04-09T18:42:34.990Z,59.2
2018-04-09T18:59:20.220Z,58.0
2018-04-09T19:16:06.765Z,56.4
2018-04-09T19:29:35.247Z,54.4
2018-04-09T19:46:16.504Z,54.4
2018-04-09T20:03:06.288Z,52.8
2018-04-09T20:19:48.473Z,52.4
2018-04-09T20:36:32.435Z,51.2
2018-04-09T20:53:17.626Z,51.2
2018-04-09T21:10:01.646Z,51.2
2018-04-09T21:26:47.068Z,50.8
2018-04-09T21:43:30.667Z,52.0
2018-04-09T22:00:14.963Z,52.0
2018-04-09T22:16:59.315Z,53.2
2018-04-09T22:33:43.702Z,53.2
2018-04-09T22:50:27.418Z,54.4
2018-04-09T23:07:10.473Z,55.2
2018-04-09T23:23:54.292Z,55.6
2018-04-09T23:40:36.340Z,56.0
2018-04-09T23:57:20.059Z,56.8
